Time;durP1;ratioP1;P1;durP2;ratioP2;P2;SDS_P1;SDS_P2;PMS_P1;PMS_P2;Temp;Humidity;BMP_temperature;BMP_pressure;BME280_temperature;BME280_humidity;BME280_pressure;Samples;Min_cycle;Max_cycle;Signal;HPM_P1;HPM_P2
2021/09/07 00:02:12;;;;;;;18.65;10.65;;;12.20;98.00;;;;;;5035107;28;20025;-71
2021/09/07 00:04:38;;;;;;;22.00;10.30;;;12.20;98.00;;;;;;5034969;28;20025;-71
2021/09/07 00:07:03;;;;;;;16.73;10.05;;;12.20;98.00;;;;;;5034937;28;20030;-70
2021/09/07 00:09:29;;;;;;;15.52;9.65;;;12.20;98.00;;;;;;5034081;28;20383;-71
2021/09/07 00:11:56;;;;;;;14.63;9.98;;;12.10;98.00;;;;;;5033392;28;20053;-68
2021/09/07 00:14:22;;;;;;;15.93;10.75;;;12.00;98.00;;;;;;5028405;28;20100;-70
2021/09/07 00:16:47;;;;;;;16.88;10.10;;;12.00;98.00;;;;;;5034731;28;20383;-72
2021/09/07 00:19:13;;;;;;;17.63;10.88;;;11.90;98.00;;;;;;5034091;28;20029;-71
2021/09/07 00:21:39;;;;;;;18.38;10.70;;;11.90;98.00;;;;;;5035032;28;20029;-71
2021/09/07 00:24:04;;;;;;;16.00;9.55;;;11.90;98.00;;;;;;5032477;28;20168;-70
2021/09/07 00:26:30;;;;;;;15.13;9.82;;;11.80;98.00;;;;;;5034578;28;20017;-71
2021/09/07 00:28:56;;;;;;;16.50;10.45;;;11.90;98.00;;;;;;5034611;28;20021;-71
2021/09/07 00:31:21;;;;;;;16.70;9.85;;;11.90;98.00;;;;;;5034547;28;20318;-69
2021/09/07 00:33:47;;;;;;;16.27;10.07;;;11.90;98.00;;;;;;5045450;28;20029;-71
2021/09/07 00:36:12;;;;;;;15.65;9.95;;;12.00;98.00;;;;;;5051304;28;20049;-72
2021/09/07 00:38:38;;;;;;;15.30;9.80;;;12.00;98.00;;;;;;5034672;28;20026;-71
2021/09/07 00:41:04;;;;;;;15.65;10.25;;;12.00;98.00;;;;;;5035093;28;20315;-71
2021/09/07 00:43:29;;;;;;;17.95;10.57;;;12.00;98.00;;;;;;5035363;28;20419;-71
2021/09/07 00:45:55;;;;;;;16.63;10.93;;;11.90;98.00;;;;;;5033357;28;20365;-73
2021/09/07 00:48:21;;;;;;;17.20;9.82;;;11.90;98.00;;;;;;5035406;28;20036;-70
2021/09/07 00:50:46;;;;;;;15.68;9.43;;;11.90;98.00;;;;;;5035387;28;20143;-70
2021/09/07 00:53:13;;;;;;;15.73;10.15;;;11.80;98.00;;;;;;5034294;28;20419;-70
2021/09/07 00:55:39;;;;;;;17.58;10.80;;;11.80;98.00;;;;;;5035177;28;20099;-72
2021/09/07 00:58:07;;;;;;;15.15;9.77;;;11.70;98.00;;;;;;5034142;28;20499;-69
2021/09/07 01:00:32;;;;;;;17.63;10.32;;;11.70;98.00;;;;;;5035299;28;20450;-70
2021/09/07 01:02:59;;;;;;;16.30;10.43;;;11.70;98.00;;;;;;5035667;28;20100;-69
2021/09/07 01:05:25;;;;;;;14.85;9.68;;;11.60;98.00;;;;;;5033825;28;20056;-70
2021/09/07 01:07:51;;;;;;;17.70;10.18;;;11.70;98.00;;;;;;5034731;28;20030;-70
2021/09/07 01:10:16;;;;;;;15.50;9.82;;;11.70;98.00;;;;;;5033221;28;20018;-70
2021/09/07 01:12:42;;;;;;;14.60;9.82;;;11.60;98.00;;;;;;5035578;28;20323;-71
2021/09/07 01:15:09;;;;;;;15.07;9.75;;;11.60;98.00;;;;;;5034245;28;20029;-69
2021/09/07 01:17:34;;;;;;;14.05;9.43;;;11.60;98.00;;;;;;5034370;28;20030;-71
2021/09/07 01:20:00;;;;;;;18.08;10.73;;;11.50;98.00;;;;;;5034192;28;20028;-70
2021/09/07 01:22:29;;;;;;;15.77;9.50;;;11.50;98.00;;;;;;5034614;28;20052;-71
2021/09/07 01:24:54;;;;;;;19.48;10.40;;;11.50;98.00;;;;;;5029338;28;20022;-70
2021/09/07 01:27:21;;;;;;;16.67;9.93;;;11.50;98.00;;;;;;5033040;28;20088;-70
2021/09/07 01:29:48;;;;;;;15.88;10.30;;;11.60;98.00;;;;;;5034210;28;20100;-69
2021/09/07 01:32:15;;;;;;;19.15;10.68;;;11.60;98.00;;;;;;5034173;28;20598;-69
2021/09/07 01:34:41;;;;;;;15.93;9.77;;;11.70;98.00;;;;;;5034125;28;20105;-69
2021/09/07 01:37:08;;;;;;;18.38;10.32;;;11.70;98.00;;;;;;5037135;28;20116;-70
2021/09/07 01:39:36;;;;;;;18.38;9.90;;;11.70;98.00;;;;;;5035981;28;20299;-69
2021/09/07 01:42:02;;;;;;;16.27;10.07;;;11.70;98.00;;;;;;5037915;28;20025;-71
2021/09/07 01:44:28;;;;;;;15.57;9.18;;;11.80;98.00;;;;;;5037678;28;20083;-69
2021/09/07 01:46:53;;;;;;;14.88;9.45;;;11.90;98.00;;;;;;5023800;28;20038;-70
2021/09/07 01:49:20;;;;;;;16.52;9.35;;;12.00;98.00;;;;;;5018710;28;20292;-72
2021/09/07 01:51:46;;;;;;;14.23;8.90;;;12.00;98.00;;;;;;5037647;28;20033;-69
2021/09/07 01:54:13;;;;;;;15.27;9.38;;;12.10;98.00;;;;;;5035864;28;20350;-71
2021/09/07 01:56:40;;;;;;;15.95;10.38;;;12.10;98.00;;;;;;5036543;28;20033;-71
2021/09/07 01:59:06;;;;;;;15.45;9.65;;;12.10;98.00;;;;;;5069704;28;20033;-71
2021/09/07 02:01:32;;;;;;;14.75;9.55;;;12.10;98.00;;;;;;5038401;28;20108;-69
2021/09/07 02:03:57;;;;;;;15.57;9.95;;;12.10;98.00;;;;;;5038604;28;20022;-69
2021/09/07 02:06:23;;;;;;;14.88;9.07;;;12.00;98.00;;;;;;5038750;28;20159;-68
2021/09/07 02:08:49;;;;;;;14.70;9.68;;;11.90;98.00;;;;;;5037520;28;20104;-70
2021/09/07 02:11:15;;;;;;;17.58;9.57;;;11.80;98.00;;;;;;5038552;28;20385;-70
2021/09/07 02:13:41;;;;;;;16.08;9.30;;;11.80;98.00;;;;;;5037688;28;20048;-70
2021/09/07 02:16:09;;;;;;;15.90;9.57;;;11.70;98.00;;;;;;5038356;28;20061;-71
2021/09/07 02:18:35;;;;;;;15.48;9.70;;;11.70;98.00;;;;;;5038074;28;20032;-70
2021/09/07 02:21:00;;;;;;;15.07;9.20;;;11.60;98.00;;;;;;5038204;28;20026;-71
2021/09/07 02:23:26;;;;;;;14.88;9.25;;;11.60;98.00;;;;;;5035628;28;20030;-70
2021/09/07 02:25:52;;;;;;;16.55;9.88;;;11.50;98.00;;;;;;5037932;28;20025;-69
2021/09/07 02:28:18;;;;;;;16.63;9.68;;;11.40;98.00;;;;;;5036962;28;20036;-71
2021/09/07 02:30:43;;;;;;;15.65;10.20;;;11.40;98.00;;;;;;5041151;28;20064;-70
2021/09/07 02:33:09;;;;;;;19.13;9.70;;;11.40;98.00;;;;;;5052589;28;20084;-72
2021/09/07 02:35:35;;;;;;;25.02;9.88;;;11.40;98.00;;;;;;5037717;28;20045;-71
2021/09/07 02:38:04;;;;;;;18.30;9.57;;;11.40;98.00;;;;;;5036368;28;20030;-70
2021/09/07 02:40:30;;;;;;;21.00;9.45;;;11.40;98.00;;;;;;5036806;28;20030;-72
2021/09/07 02:42:56;;;;;;;16.75;9.95;;;11.40;98.00;;;;;;5037902;28;20053;-70
2021/09/07 02:45:22;;;;;;;14.98;9.63;;;11.40;98.00;;;;;;5036530;28;20060;-71
2021/09/07 02:47:47;;;;;;;14.98;9.20;;;11.40;98.00;;;;;;5036251;28;20034;-71
2021/09/07 02:50:15;;;;;;;13.00;8.30;;;11.50;98.00;;;;;;5037875;28;20093;-71
2021/09/07 02:52:42;;;;;;;14.85;9.27;;;11.50;98.00;;;;;;5037523;28;20021;-71
2021/09/07 02:55:08;;;;;;;15.63;9.00;;;11.60;98.00;;;;;;5036785;28;20415;-71
2021/09/07 02:57:34;;;;;;;16.23;9.82;;;11.60;98.00;;;;;;5037458;28;20033;-71
2021/09/07 03:00:04;;;;;;;19.60;9.60;;;11.60;98.00;;;;;;5037594;28;20029;-71
2021/09/07 03:02:29;;;;;;;12.77;8.18;;;11.60;98.00;;;;;;5037703;28;20454;-71
2021/09/07 03:04:58;;;;;;;14.65;9.25;;;11.50;98.00;;;;;;5037354;28;20033;-70
2021/09/07 03:07:24;;;;;;;13.55;8.73;;;11.50;98.00;;;;;;5037455;28;20029;-70
2021/09/07 03:09:49;;;;;;;13.95;8.43;;;11.40;98.00;;;;;;5035954;28;20414;-71
2021/09/07 03:12:15;;;;;;;13.43;8.80;;;11.40;98.00;;;;;;5037236;28;20064;-71
2021/09/07 03:14:40;;;;;;;15.07;9.00;;;11.40;98.00;;;;;;5035851;28;20061;-70
2021/09/07 03:17:06;;;;;;;14.63;9.27;;;11.40;98.00;;;;;;5037157;28;20430;-71
2021/09/07 03:19:32;;;;;;;18.52;9.73;;;11.40;98.00;;;;;;5037125;28;20029;-71
2021/09/07 03:21:57;;;;;;;17.33;8.98;;;11.30;98.00;;;;;;5036942;28;20076;-71
2021/09/07 03:24:23;;;;;;;16.13;9.02;;;11.30;98.00;;;;;;5035878;28;20033;-70
2021/09/07 03:26:49;;;;;;;16.48;9.68;;;11.40;98.00;;;;;;5036845;28;20056;-70
2021/09/07 03:29:14;;;;;;;14.82;8.63;;;11.40;98.00;;;;;;5035654;28;20415;-69
2021/09/07 03:31:40;;;;;;;17.15;9.40;;;11.40;98.00;;;;;;5046142;28;20033;-70
2021/09/07 03:34:06;;;;;;;13.73;8.82;;;11.50;98.00;;;;;;5036479;28;20067;-71
2021/09/07 03:36:32;;;;;;;15.23;9.55;;;11.50;98.00;;;;;;5036397;28;20092;-71
2021/09/07 03:38:58;;;;;;;16.25;9.63;;;11.50;98.00;;;;;;5034620;28;20072;-71
2021/09/07 03:41:23;;;;;;;15.18;8.65;;;11.50;98.00;;;;;;5036833;28;20053;-71
2021/09/07 03:43:49;;;;;;;17.30;9.13;;;11.40;98.00;;;;;;5036814;28;20029;-71
2021/09/07 03:46:14;;;;;;;16.05;9.00;;;11.40;98.00;;;;;;5036304;28;20323;-71
2021/09/07 03:48:41;;;;;;;14.65;9.07;;;11.40;98.00;;;;;;5036640;28;20544;-71
2021/09/07 03:51:07;;;;;;;14.93;9.18;;;11.40;98.00;;;;;;5036913;28;20133;-71
2021/09/07 03:53:33;;;;;;;14.02;9.15;;;11.30;98.00;;;;;;5034728;28;20031;-70
2021/09/07 03:55:59;;;;;;;16.48;9.68;;;11.40;98.00;;;;;;5036769;28;20021;-71
2021/09/07 03:58:24;;;;;;;14.30;9.27;;;11.50;98.00;;;;;;5034481;28;20160;-71
2021/09/07 04:00:50;;;;;;;15.82;9.95;;;11.50;98.00;;;;;;5036048;28;20021;-71
2021/09/07 04:03:18;;;;;;;17.65;9.70;;;11.50;98.00;;;;;;5036034;28;20115;-71
2021/09/07 04:05:44;;;;;;;14.00;9.20;;;11.50;98.00;;;;;;5036604;28;20076;-71
2021/09/07 04:08:11;;;;;;;15.65;9.50;;;11.60;98.00;;;;;;5035193;28;20117;-70
2021/09/07 04:10:37;;;;;;;14.68;9.20;;;11.50;98.00;;;;;;5036063;28;20022;-71
2021/09/07 04:13:03;;;;;;;17.73;9.50;;;11.50;98.00;;;;;;5036456;28;20021;-71
2021/09/07 04:15:28;;;;;;;16.50;9.18;;;11.40;98.00;;;;;;5036125;28;20299;-71
2021/09/07 04:17:54;;;;;;;14.25;8.77;;;11.40;98.00;;;;;;5036106;28;20307;-70
2021/09/07 04:20:20;;;;;;;14.48;9.68;;;11.30;98.00;;;;;;5035928;28;20040;-71
2021/09/07 04:22:45;;;;;;;17.60;9.55;;;11.30;98.00;;;;;;5034995;28;20042;-70
2021/09/07 04:25:11;;;;;;;14.63;9.40;;;11.20;98.00;;;;;;5034715;28;20060;-70
2021/09/07 04:27:37;;;;;;;16.30;9.77;;;11.10;98.00;;;;;;5035922;28;20399;-70
2021/09/07 04:30:07;;;;;;;13.00;8.80;;;11.10;98.00;;;;;;5035491;28;20415;-70
2021/09/07 04:32:33;;;;;;;14.23;9.70;;;11.10;98.00;;;;;;5052347;28;20426;-70
2021/09/07 04:34:58;;;;;;;15.70;10.25;;;11.00;98.00;;;;;;5037657;28;20080;-72
2021/09/07 04:37:24;;;;;;;16.88;10.43;;;11.00;98.00;;;;;;5034822;28;20037;-72
2021/09/07 04:39:50;;;;;;;14.80;10.00;;;10.90;98.00;;;;;;5033912;28;20030;-71
2021/09/07 04:42:16;;;;;;;14.88;9.77;;;10.80;98.00;;;;;;5016248;28;20029;-71
2021/09/07 04:44:42;;;;;;;17.25;10.23;;;10.70;98.00;;;;;;5034793;28;20053;-71
2021/09/07 04:47:08;;;;;;;17.33;10.43;;;10.70;98.00;;;;;;5034244;28;20029;-71
2021/09/07 04:49:34;;;;;;;20.23;12.65;;;10.60;98.00;;;;;;5035468;28;20030;-70
2021/09/07 04:51:59;;;;;;;24.63;13.80;;;10.60;98.00;;;;;;5035566;28;20407;-71
2021/09/07 04:54:25;;;;;;;21.23;13.02;;;10.50;98.00;;;;;;5033770;28;20029;-71
2021/09/07 04:56:51;;;;;;;19.17;12.35;;;10.60;98.00;;;;;;5034382;28;20112;-71
2021/09/07 04:59:16;;;;;;;23.77;11.80;;;10.60;98.00;;;;;;5034564;28;20334;-71
2021/09/07 05:01:42;;;;;;;15.93;10.50;;;10.60;98.00;;;;;;5035348;28;20316;-71
2021/09/07 05:04:08;;;;;;;17.08;10.15;;;10.80;98.00;;;;;;5035195;28;20034;-70
2021/09/07 05:06:33;;;;;;;15.45;10.23;;;10.90;98.00;;;;;;5035023;28;20025;-71
2021/09/07 05:08:59;;;;;;;18.67;10.98;;;10.90;98.00;;;;;;5034878;28;20017;-71
2021/09/07 05:11:25;;;;;;;16.48;10.30;;;11.10;98.00;;;;;;5036773;28;20032;-70
2021/09/07 05:13:50;;;;;;;17.98;11.27;;;11.10;98.00;;;;;;5038430;28;20040;-70
2021/09/07 05:16:16;;;;;;;17.98;10.90;;;11.20;98.00;;;;;;5039079;28;20071;-71
2021/09/07 05:18:42;;;;;;;16.40;10.07;;;11.30;98.00;;;;;;5038924;28;20033;-70
2021/09/07 05:21:07;;;;;;;17.52;10.15;;;11.40;98.00;;;;;;5039367;28;20029;-71
2021/09/07 05:23:33;;;;;;;19.15;10.15;;;11.60;98.00;;;;;;5038801;28;20049;-71
2021/09/07 05:25:59;;;;;;;16.02;10.10;;;11.70;98.00;;;;;;5038733;28;20032;-70
2021/09/07 05:28:24;;;;;;;17.23;9.77;;;11.80;98.00;;;;;;5038781;28;20116;-71
2021/09/07 05:30:50;;;;;;;15.90;10.63;;;11.90;98.00;;;;;;5038604;28;20092;-70
2021/09/07 05:33:15;;;;;;;18.05;11.77;;;12.00;98.00;;;;;;5039146;28;20068;-70
2021/09/07 05:35:42;;;;;;;17.52;10.70;;;12.00;98.00;;;;;;5036114;28;20049;-71
2021/09/07 05:38:07;;;;;;;19.38;11.98;;;12.00;98.00;;;;;;5037915;28;20029;-70
2021/09/07 05:40:33;;;;;;;19.35;11.07;;;12.10;98.00;;;;;;5037523;28;20485;-70
2021/09/07 05:42:59;;;;;;;20.38;11.23;;;12.20;98.00;;;;;;5038679;28;20025;-71
2021/09/07 05:45:25;;;;;;;16.50;10.30;;;12.30;98.00;;;;;;5038063;28;20040;-71
2021/09/07 05:47:50;;;;;;;15.63;10.07;;;12.30;98.00;;;;;;5038990;28;20034;-71
2021/09/07 05:50:16;;;;;;;18.38;10.10;;;12.40;98.00;;;;;;5037800;28;20021;-70
2021/09/07 05:52:43;;;;;;;19.95;10.43;;;12.50;98.00;;;;;;5038393;28;20037;-71
2021/09/07 05:55:09;;;;;;;18.02;9.73;;;12.70;98.00;;;;;;5037509;28;20033;-71
2021/09/07 05:57:35;;;;;;;15.80;9.55;;;12.90;98.00;;;;;;5038967;28;20041;-71
2021/09/07 06:00:01;;;;;;;15.27;9.13;;;13.00;98.00;;;;;;5038256;28;20022;-69
2021/09/07 06:02:27;;;;;;;13.93;9.05;;;13.20;98.00;;;;;;5035633;28;20029;-71
2021/09/07 06:04:54;;;;;;;15.20;9.70;;;13.40;98.00;;;;;;5036708;28;20122;-71
2021/09/07 06:07:20;;;;;;;16.13;10.13;;;13.50;98.00;;;;;;5037931;28;20032;-70
2021/09/07 06:09:46;;;;;;;14.68;8.80;;;13.70;98.00;;;;;;5035899;28;20411;-71
2021/09/07 06:12:11;;;;;;;22.88;10.50;;;13.90;98.00;;;;;;5037966;28;20111;-70
2021/09/07 06:14:40;;;;;;;14.15;9.02;;;14.10;98.00;;;;;;5037557;28;20027;-70
2021/09/07 06:17:07;;;;;;;16.98;9.50;;;14.10;98.00;;;;;;5037865;28;20075;-70
2021/09/07 06:19:33;;;;;;;14.93;9.70;;;14.30;98.00;;;;;;5038497;28;20040;-71
2021/09/07 06:21:59;;;;;;;15.18;10.00;;;14.40;97.70;;;;;;5037239;28;20022;-71
2021/09/07 06:24:24;;;;;;;14.43;9.15;;;14.60;96.90;;;;;;5036581;28;20041;-71
2021/09/07 06:26:50;;;;;;;13.57;8.93;;;14.80;96.00;;;;;;5036906;28;20373;-71
2021/09/07 06:29:16;;;;;;;15.75;9.30;;;15.00;95.20;;;;;;5037915;28;20037;-71
2021/09/07 06:31:41;;;;;;;13.32;8.00;;;15.20;95.40;;;;;;5038410;28;20143;-71
2021/09/07 06:34:10;;;;;;;14.30;8.98;;;15.30;95.40;;;;;;5036966;28;20030;-71
2021/09/07 06:36:35;;;;;;;15.07;9.57;;;15.60;95.80;;;;;;5037597;28;20322;-71
2021/09/07 06:39:01;;;;;;;16.08;10.27;;;15.80;95.60;;;;;;5036396;28;20034;-71
2021/09/07 06:41:27;;;;;;;19.15;11.27;;;15.70;94.30;;;;;;5037070;28;20040;-71
2021/09/07 06:43:53;;;;;;;18.73;11.57;;;15.60;94.90;;;;;;5037397;28;20022;-71
2021/09/07 06:46:19;;;;;;;19.67;12.45;;;15.50;94.60;;;;;;5037255;28;20080;-70
2021/09/07 06:48:47;;;;;;;24.90;13.23;;;15.50;95.30;;;;;;5036933;28;20053;-71
2021/09/07 06:51:13;;;;;;;21.90;12.63;;;15.40;95.00;;;;;;5036910;28;20025;-70
2021/09/07 06:53:38;;;;;;;23.23;13.02;;;15.50;95.30;;;;;;5035777;28;20441;-70
2021/09/07 06:56:04;;;;;;;25.77;13.95;;;15.60;94.50;;;;;;5037007;28;20080;-70
2021/09/07 06:58:30;;;;;;;23.95;13.13;;;15.80;93.20;;;;;;5035829;28;20053;-71
2021/09/07 07:00:56;;;;;;;22.23;13.77;;;16.00;93.20;;;;;;5037112;28;20030;-71
2021/09/07 07:03:21;;;;;;;21.15;13.07;;;16.00;93.10;;;;;;5037410;28;20033;-71
2021/09/07 07:05:47;;;;;;;27.58;16.48;;;16.20;93.10;;;;;;5037275;28;20029;-71
2021/09/07 07:08:12;;;;;;;28.30;16.60;;;16.50;93.70;;;;;;5035777;28;20300;-71
2021/09/07 07:10:38;;;;;;;25.48;15.20;;;16.80;93.80;;;;;;5037399;28;20030;-71
2021/09/07 07:13:04;;;;;;;24.65;14.00;;;17.30;93.30;;;;;;5036835;28;20033;-72
2021/09/07 07:15:33;;;;;;;21.88;12.95;;;17.70;92.10;;;;;;5036779;28;20095;-70
2021/09/07 07:17:58;;;;;;;21.67;12.60;;;17.90;91.00;;;;;;5035896;28;20419;-70
2021/09/07 07:20:24;;;;;;;19.27;11.98;;;18.00;91.00;;;;;;5036905;28;20159;-70
2021/09/07 07:22:50;;;;;;;21.63;12.63;;;18.00;91.50;;;;;;5036927;28;20116;-70
2021/09/07 07:25:16;;;;;;;23.80;13.25;;;17.80;89.90;;;;;;5035897;28;20025;-69
2021/09/07 07:27:42;;;;;;;21.95;13.05;;;17.50;88.60;;;;;;5035970;28;20036;-69
2021/09/07 07:30:09;;;;;;;21.85;13.95;;;17.20;89.00;;;;;;5036966;28;20318;-72
2021/09/07 07:32:35;;;;;;;20.40;13.18;;;17.10;90.00;;;;;;5036779;28;20030;-71
2021/09/07 07:35:02;;;;;;;21.02;12.23;;;17.20;90.30;;;;;;5036797;28;20025;-71
2021/09/07 07:37:27;;;;;;;18.95;12.40;;;17.20;90.50;;;;;;5036893;28;20052;-70
2021/09/07 07:39:53;;;;;;;18.63;11.48;;;17.50;91.00;;;;;;5035461;28;20321;-71
2021/09/07 07:42:22;;;;;;;15.93;10.38;;;17.90;90.60;;;;;;5036974;28;20037;-70
2021/09/07 07:44:48;;;;;;;19.00;10.38;;;18.30;89.50;;;;;;5036171;28;20038;-71
2021/09/07 07:47:14;;;;;;;15.00;9.93;;;18.40;89.20;;;;;;5036717;28;20064;-71
2021/09/07 07:49:40;;;;;;;19.13;10.07;;;18.70;89.10;;;;;;5036382;28;20099;-71
2021/09/07 07:52:06;;;;;;;14.00;9.27;;;18.90;87.90;;;;;;5036884;28;20053;-71
2021/09/07 07:54:32;;;;;;;15.85;10.70;;;19.30;87.30;;;;;;5035131;28;20455;-71
2021/09/07 07:56:57;;;;;;;16.15;9.02;;;19.80;86.20;;;;;;5036242;28;20029;-71
2021/09/07 07:59:23;;;;;;;17.15;9.05;;;20.10;84.90;;;;;;5036520;28;20047;-71
2021/09/07 08:01:49;;;;;;;14.65;8.52;;;20.40;83.00;;;;;;5036131;28;20033;-71
2021/09/07 08:04:15;;;;;;;13.70;8.65;;;20.80;82.70;;;;;;5036397;28;20083;-70
2021/09/07 08:06:41;;;;;;;13.60;7.70;;;21.60;81.10;;;;;;5036230;28;20029;-71
2021/09/07 08:09:09;;;;;;;12.43;7.60;;;22.40;79.70;;;;;;5035266;28;20025;-72
2021/09/07 08:11:35;;;;;;;12.60;7.47;;;23.60;73.30;;;;;;5036110;28;20040;-71
2021/09/07 08:14:01;;;;;;;11.05;7.15;;;24.10;70.80;;;;;;5035729;28;20037;-71
2021/09/07 08:16:26;;;;;;;10.80;6.95;;;24.80;69.60;;;;;;5036318;28;20044;-72
2021/09/07 08:18:52;;;;;;;11.63;7.10;;;25.40;69.00;;;;;;5036269;28;20025;-71
2021/09/07 08:21:17;;;;;;;12.57;7.47;;;25.80;68.60;;;;;;5036130;28;20036;-71
2021/09/07 08:23:43;;;;;;;10.73;7.25;;;26.10;68.90;;;;;;5034729;28;20026;-72
2021/09/07 08:26:09;;;;;;;11.98;7.90;;;25.80;68.70;;;;;;5036143;28;20447;-71
2021/09/07 08:28:34;;;;;;;13.15;8.27;;;25.30;69.30;;;;;;5035702;28;20025;-71
2021/09/07 08:31:00;;;;;;;11.60;7.20;;;25.60;69.40;;;;;;5035565;28;20417;-71
2021/09/07 08:33:26;;;;;;;9.15;6.00;;;26.40;67.80;;;;;;5035855;28;20025;-71
2021/09/07 08:35:51;;;;;;;10.63;6.07;;;26.90;62.60;;;;;;5035369;28;20042;-71
2021/09/07 08:38:17;;;;;;;8.23;5.70;;;27.00;61.00;;;;;;5031752;28;20042;-71
2021/09/07 08:40:43;;;;;;;8.68;5.47;;;27.00;60.30;;;;;;5036150;28;20034;-71
2021/09/07 08:43:08;;;;;;;9.25;5.57;;;27.10;61.40;;;;;;5035440;28;20029;-72
2021/09/07 08:45:34;;;;;;;8.68;5.72;;;27.50;58.40;;;;;;5041886;28;20052;-71
2021/09/07 08:48:02;;;;;;;7.85;4.88;;;28.00;59.90;;;;;;5032900;28;20024;-71
2021/09/07 08:50:28;;;;;;;9.65;5.68;;;29.00;56.60;;;;;;5031349;28;20100;-72
2021/09/07 08:52:59;;;;;;;11.57;6.30;;;29.00;58.20;;;;;;5034695;28;20075;-72
2021/09/07 08:55:29;;;;;;;10.40;6.78;;;28.50;62.80;;;;;;5034463;28;20482;-71
2021/09/07 08:57:55;;;;;;;10.55;7.18;;;28.00;63.30;;;;;;5035438;28;20022;-71
2021/09/07 09:00:27;;;;;;;9.52;6.18;;;27.30;64.50;;;;;;5035589;28;20104;-70
2021/09/07 09:02:53;;;;;;;10.98;7.20;;;27.40;63.00;;;;;;5030956;28;20076;-71
2021/09/07 09:05:26;;;;;;;9.88;5.93;;;27.30;63.10;;;;;;5035831;28;20032;-71
2021/09/07 09:07:52;;;;;;;;;;;27.60;59.30;;;;;;5035984;28;20108;-72
2021/09/07 09:10:20;;;;;;;9.68;5.57;;;28.10;59.70;;;;;;5033251;28;19956;-72
2021/09/07 09:12:46;;;;;;;8.00;5.53;;;28.30;59.50;;;;;;5035356;28;20033;-71
2021/09/07 09:15:17;;;;;;;8.30;5.00;;;28.80;56.40;;;;;;5035372;28;20022;-71
2021/09/07 09:17:43;;;;;;;9.18;5.88;;;29.10;59.30;;;;;;5035114;28;20415;-72
2021/09/07 09:20:18;;;;;;;10.05;5.82;;;29.60;55.90;;;;;;5035503;28;20036;-72
2021/09/07 09:22:58;;;;;;;9.13;5.97;;;29.00;56.40;;;;;;5034063;28;20415;-72
2021/09/07 09:25:26;;;;;;;10.32;6.10;;;28.40;57.20;;;;;;5034337;28;20318;-71
2021/09/07 09:27:55;;;;;;;8.88;6.30;;;28.10;58.00;;;;;;5035479;28;20083;-72
2021/09/07 09:30:44;;;;;;;10.18;5.95;;;28.00;57.60;;;;;;5035624;28;20083;-71
2021/09/07 09:33:12;;;;;;;9.70;5.82;;;28.20;58.40;;;;;;5035438;28;20018;-72
2021/09/07 09:35:51;;;;;;;12.60;6.65;;;28.00;57.20;;;;;;5034995;28;20045;-72
2021/09/07 09:38:20;;;;;;;9.80;6.25;;;28.50;59.10;;;;;;5033922;28;20029;-71
2021/09/07 09:40:57;;;;;;;9.02;5.60;;;28.90;57.90;;;;;;5034889;28;20026;-72
2021/09/07 09:43:37;;;;;;;8.05;5.72;;;29.30;56.60;;;;;;5035175;28;20029;-71
2021/09/07 09:46:15;;;;;;;9.55;6.10;;;29.70;55.40;;;;;;5034867;28;20040;-71
2021/09/07 09:48:41;;;;;;;10.20;6.38;;;29.30;54.70;;;;;;5034828;28;20030;-70
2021/09/07 09:51:07;;;;;;;10.20;6.18;;;29.00;55.40;;;;;;5036224;28;20025;-70
2021/09/07 09:53:37;;;;;;;8.85;5.93;;;29.20;54.80;;;;;;5027207;28;20025;-71
2021/09/07 09:56:03;;;;;;;10.50;6.20;;;29.70;55.40;;;;;;5033263;28;20068;-71
2021/09/07 09:58:32;;;;;;;10.07;6.30;;;30.10;55.10;;;;;;5037779;28;20323;-71
2021/09/07 10:00:59;;;;;;;9.23;5.75;;;30.50;53.60;;;;;;5037507;28;20612;-71
2021/09/07 10:03:25;;;;;;;9.57;5.50;;;30.70;53.40;;;;;;5035848;28;20033;-71
2021/09/07 10:05:51;;;;;;;8.48;5.72;;;30.70;55.70;;;;;;5037916;28;20014;-71
2021/09/07 10:08:18;;;;;;;9.40;5.70;;;30.60;52.10;;;;;;5035778;28;20683;-71
2021/09/07 10:11:01;;;;;;;9.73;5.75;;;30.10;52.40;;;;;;5038517;28;20096;-71
2021/09/07 10:13:30;;;;;;;9.98;5.60;;;30.10;51.90;;;;;;5037473;28;20041;-71
2021/09/07 10:16:01;;;;;;;9.50;5.63;;;29.80;52.00;;;;;;5036628;28;20474;-71
2021/09/07 10:26:53;;;;;;;9.07;5.75;;;30.40;52.30;;;;;;5015792;28;20042;-72
2021/09/07 10:29:42;;;;;;;9.40;5.85;;;30.40;52.30;;;;;;5016589;28;20612;-72
2021/09/07 10:32:24;;;;;;;9.55;5.43;;;30.30;52.50;;;;;;5012747;28;20100;-72
2021/09/07 10:35:05;;;;;;;9.20;5.70;;;30.20;53.50;;;;;;5018641;28;20096;-71
2021/09/07 10:38:07;;;;;;;8.43;5.55;;;30.50;52.50;;;;;;5030604;28;20049;-71
2021/09/07 10:40:59;;;;;;;10.60;5.85;;;30.20;52.90;;;;;;5037659;28;20029;-72
2021/09/07 10:43:52;;;;;;;7.90;5.50;;;30.60;53.70;;;;;;5036104;28;20045;-71
2021/09/07 10:46:58;;;;;;;8.10;5.40;;;30.00;52.10;;;;;;5037231;28;20185;-71
2021/09/07 10:49:33;;;;;;;9.05;5.70;;;29.90;54.10;;;;;;5037003;28;20145;-71
2021/09/07 10:54:39;;;;;;;7.88;5.55;;;29.60;56.00;;;;;;5036856;28;20026;-71
2021/09/07 10:57:05;;;;;;;9.18;5.50;;;30.40;52.30;;;;;;5037735;28;20104;-71
2021/09/07 10:59:46;;;;;;;8.77;5.28;;;30.50;49.70;;;;;;5037784;28;20026;-71
2021/09/07 11:02:37;;;;;;;9.13;5.55;;;29.90;48.30;;;;;;5037906;28;20070;-71
2021/09/07 11:05:05;;;;;;;8.43;5.43;;;29.90;53.80;;;;;;5037791;28;20025;-70
2021/09/07 11:07:42;;;;;;;8.18;4.93;;;30.20;52.50;;;;;;5035645;28;20091;-71
2021/09/07 11:10:17;;;;;;;9.15;5.38;;;29.30;50.70;;;;;;5036457;28;20017;-71
2021/09/07 11:13:16;;;;;;;8.80;5.20;;;28.70;52.20;;;;;;5037660;28;20108;-71
2021/09/07 11:15:44;;;;;;;7.97;5.35;;;28.70;51.90;;;;;;5037063;28;20045;-72
2021/09/07 11:18:15;;;;;;;7.55;4.65;;;29.30;51.20;;;;;;5037373;28;20338;-71
2021/09/07 11:20:46;;;;;;;7.57;4.82;;;29.40;48.70;;;;;;5037619;28;20057;-71
2021/09/07 11:23:13;;;;;;;8.38;4.82;;;29.40;49.30;;;;;;5036380;28;20025;-71
2021/09/07 11:25:41;;;;;;;8.07;4.80;;;29.90;47.30;;;;;;5037282;28;20060;-71
2021/09/07 11:28:10;;;;;;;8.95;4.80;;;30.00;49.80;;;;;;5037392;28;20369;-71
2021/09/07 11:30:51;;;;;;;7.95;4.70;;;30.20;48.40;;;;;;5037120;28;20025;-71
2021/09/07 11:33:18;;;;;;;8.88;4.65;;;30.00;48.40;;;;;;5037104;28;20022;-71
2021/09/07 11:35:52;;;;;;;8.38;4.47;;;30.20;48.10;;;;;;5037178;28;20052;-71
2021/09/07 11:38:20;;;;;;;7.93;4.53;;;30.30;47.90;;;;;;5016191;28;20076;-71
2021/09/07 11:40:49;;;;;;;8.57;4.60;;;30.10;47.00;;;;;;5017297;28;20076;-71
2021/09/07 11:43:27;;;;;;;6.95;4.35;;;30.10;50.00;;;;;;5017224;28;20116;-71
2021/09/07 11:46:11;;;;;;;7.70;4.50;;;30.20;48.80;;;;;;5016146;28;20025;-71
2021/09/07 11:48:38;;;;;;;7.07;4.40;;;30.40;49.90;;;;;;5016978;28;20037;-71
2021/09/07 11:51:06;;;;;;;7.03;4.30;;;30.40;48.50;;;;;;5017246;28;20030;-70
2021/09/07 11:53:32;;;;;;;8.77;4.95;;;30.30;47.80;;;;;;5015828;28;20026;-71
2021/09/07 11:55:58;;;;;;;6.53;4.22;;;30.40;48.80;;;;;;5017063;28;20366;-71
2021/09/07 11:58:30;;;;;;;7.75;4.80;;;30.30;48.30;;;;;;5036360;28;20111;-71
2021/09/07 12:01:06;;;;;;;7.68;5.13;;;29.90;50.10;;;;;;5036373;28;20029;-71
2021/09/07 12:03:37;;;;;;;8.85;4.60;;;30.00;49.50;;;;;;5036675;28;20132;-71
2021/09/07 12:06:04;;;;;;;7.30;4.72;;;30.00;49.00;;;;;;5036349;28;20092;-71
2021/09/07 12:08:40;;;;;;;8.55;5.18;;;30.00;49.60;;;;;;5035221;28;20151;-71
2021/09/07 12:11:08;;;;;;;8.85;5.00;;;30.00;50.00;;;;;;5036602;28;20437;-71
2021/09/07 12:13:34;;;;;;;7.38;5.00;;;30.00;50.50;;;;;;5036497;28;20029;-70
2021/09/07 12:16:05;;;;;;;8.32;5.10;;;29.90;49.40;;;;;;5036351;28;20028;-70
2021/09/07 12:18:32;;;;;;;8.07;5.28;;;29.30;50.30;;;;;;5028078;28;20057;-70
2021/09/07 12:21:21;;;;;;;7.97;4.82;;;28.90;51.90;;;;;;5016728;28;20414;-70
2021/09/07 12:23:48;;;;;;;8.20;5.25;;;29.10;51.00;;;;;;5016354;28;20116;-70
2021/09/07 12:26:14;;;;;;;9.15;5.57;;;29.50;52.10;;;;;;5034220;28;20056;-70
2021/09/07 12:28:40;;;;;;;9.18;5.22;;;29.50;49.60;;;;;;5035751;28;20068;-70
2021/09/07 12:31:18;;;;;;;9.00;5.85;;;29.40;50.70;;;;;;5035907;28;20413;-70
2021/09/07 12:33:47;;;;;;;8.00;5.30;;;29.40;51.80;;;;;;5035972;28;20045;-70
2021/09/07 12:36:13;;;;;;;10.55;5.78;;;29.80;51.10;;;;;;5035829;28;20046;-70
2021/09/07 12:38:41;;;;;;;9.18;5.88;;;29.70;50.60;;;;;;5023797;28;20038;-70
2021/09/07 12:41:21;;;;;;;9.65;5.30;;;29.30;52.30;;;;;;5028111;28;20131;-70
2021/09/07 12:43:52;;;;;;;8.07;5.20;;;29.10;52.80;;;;;;5035861;28;20093;-70
2021/09/07 12:46:20;;;;;;;10.23;4.95;;;29.20;52.10;;;;;;5035993;28;20080;-70
2021/09/07 12:48:48;;;;;;;9.30;5.93;;;29.30;51.70;;;;;;5035955;28;20029;-70
2021/09/07 12:51:17;;;;;;;9.43;5.85;;;29.30;52.60;;;;;;5035876;28;20022;-71